createdAt,value
2023-02-09T04:58:41.266Z,-5.49
2023-02-09T05:01:44.488Z,-5.30
2023-02-09T05:04:49.715Z,-5.37
2023-02-09T05:07:52.585Z,-5.36
2023-02-09T05:10:57.228Z,-5.39
2023-02-09T05:14:00.465Z,-5.30
2023-02-09T05:17:03.380Z,-5.39
2023-02-09T05:20:08.124Z,-5.46
2023-02-09T05:23:15.850Z,-5.48
2023-02-09T05:26:18.717Z,-5.48
2023-02-09T05:29:22.295Z,-5.56
2023-02-09T05:32:25.324Z,-5.55
2023-02-09T05:35:28.017Z,-5.61
2023-02-09T05:38:30.927Z,-5.78
2023-02-09T05:41:52.262Z,-5.82
2023-02-09T05:44:55.194Z,-5.87
2023-02-09T05:47:57.879Z,-5.87
2023-02-09T05:51:00.798Z,-5.83
2023-02-09T05:54:03.561Z,-5.89
2023-02-09T05:57:07.297Z,-5.98
2023-02-09T06:00:11.184Z,-6.01
2023-02-09T06:03:16.458Z,-6.02
2023-02-09T06:06:19.448Z,-6.03
2023-02-09T06:09:22.252Z,-5.98
2023-02-09T06:12:25.350Z,-5.88
2023-02-09T06:15:28.126Z,-5.84
2023-02-09T06:18:31.089Z,-5.92
2023-02-09T06:21:33.882Z,-5.90
2023-02-09T06:24:36.732Z,-5.97
2023-02-09T06:27:39.372Z,-5.93
2023-02-09T06:30:42.623Z,-5.86
2023-02-09T06:33:45.387Z,-5.84
2023-02-09T06:36:48.541Z,-5.82
2023-02-09T06:39:51.268Z,-5.71
2023-02-09T06:42:54.311Z,-5.48
2023-02-09T06:45:56.967Z,-5.35
2023-02-09T06:48:59.826Z,-5.11
2023-02-09T06:52:02.737Z,-4.93
2023-02-09T06:55:07.606Z,-4.76
2023-02-09T06:58:10.908Z,-4.61
2023-02-09T07:01:15.916Z,-4.47
2023-02-09T07:04:18.815Z,-4.25
2023-02-09T07:07:21.753Z,-4.15
2023-02-09T07:10:24.552Z,-4.06
2023-02-09T07:13:28.756Z,-3.96
2023-02-09T07:16:34.701Z,-3.80
2023-02-09T07:19:37.963Z,-3.66
2023-02-09T07:22:50.281Z,-3.56
2023-02-09T07:25:53.831Z,-3.45
2023-02-09T07:28:56.603Z,-3.26
2023-02-09T07:32:00.124Z,-3.07
2023-02-09T07:35:02.945Z,-3.00
2023-02-09T07:38:06.283Z,-2.71
2023-02-09T07:41:18.045Z,-2.55
2023-02-09T07:44:21.149Z,-2.41
2023-02-09T07:47:23.807Z,-2.11
2023-02-09T07:50:27.482Z,-1.58
2023-02-09T07:53:30.123Z,-1.06
2023-02-09T07:56:33.053Z,-1.05
2023-02-09T07:59:35.691Z,-0.95
2023-02-09T08:02:39.098Z,-1.02
2023-02-09T08:05:50.458Z,-0.97
2023-02-09T08:08:53.605Z,-0.77
2023-02-09T08:12:01.614Z,-0.80
2023-02-09T08:15:05.230Z,-0.57
2023-02-09T08:18:22.099Z,-0.39
2023-02-09T08:21:28.096Z,-0.69
2023-02-09T08:24:31.957Z,-0.65
2023-02-09T08:27:37.377Z,-0.53
2023-02-09T08:31:00.343Z,-0.42
2023-02-09T08:34:03.803Z,-0.20
2023-02-09T08:37:06.690Z,-0.21
2023-02-09T08:40:09.959Z,-0.33
2023-02-09T08:43:13.935Z,-0.15
2023-02-09T08:46:16.808Z,-0.14
2023-02-09T08:49:19.747Z,-0.05
2023-02-09T08:52:22.545Z,-0.05
2023-02-09T08:55:25.558Z,0.09
2023-02-09T08:58:28.332Z,0.10
2023-02-09T09:01:31.427Z,-0.01
2023-02-09T09:04:34.393Z,0.21
2023-02-09T09:07:37.272Z,0.22
2023-02-09T09:10:39.975Z,0.08
2023-02-09T09:13:42.983Z,0.19
2023-02-09T09:16:45.728Z,0.11
2023-02-09T09:19:48.976Z,0.24
2023-02-09T09:22:51.560Z,0.34
2023-02-09T09:25:54.454Z,0.61
2023-02-09T09:28:57.075Z,0.70
2023-02-09T09:32:00.818Z,0.75
2023-02-09T09:35:03.555Z,0.76
2023-02-09T09:38:06.450Z,0.71
2023-02-09T09:41:28.475Z,0.96
2023-02-09T09:44:41.479Z,1.05
2023-02-09T09:47:44.876Z,1.03
2023-02-09T09:50:48.071Z,1.31
2023-02-09T09:53:55.496Z,1.34
2023-02-09T09:56:59.152Z,1.42
2023-02-09T10:00:03.282Z,1.45
2023-02-09T10:03:19.781Z,1.56
2023-02-09T10:06:23.204Z,1.64
2023-02-09T10:09:57.386Z,1.53
2023-02-09T10:13:08.787Z,1.46
2023-02-09T10:16:18.758Z,1.48
2023-02-09T10:19:29.188Z,1.49
2023-02-09T10:22:31.663Z,1.64
2023-02-09T10:25:48.902Z,1.89
2023-02-09T10:28:57.221Z,2.00
2023-02-09T10:32:06.168Z,2.15
2023-02-09T10:35:35.767Z,2.24
2023-02-09T10:38:40.165Z,2.16
2023-02-09T10:41:47.197Z,2.21
2023-02-09T10:44:53.511Z,2.17
2023-02-09T10:47:58.919Z,2.23
2023-02-09T10:51:07.528Z,2.32
2023-02-09T10:54:21.366Z,2.39
2023-02-09T10:57:30.060Z,2.11
2023-02-09T11:00:43.703Z,2.24
2023-02-09T11:04:00.412Z,2.47
2023-02-09T11:07:27.736Z,2.69
2023-02-09T11:10:35.089Z,2.72
2023-02-09T11:13:40.858Z,2.87
2023-02-09T11:16:46.751Z,2.76
2023-02-09T11:20:13.538Z,2.69
2023-02-09T11:23:31.659Z,2.90
2023-02-09T11:26:50.490Z,3.14
2023-02-09T11:30:10.552Z,3.31
2023-02-09T11:33:29.877Z,3.51
2023-02-09T11:36:55.657Z,3.76
2023-02-09T11:40:07.894Z,3.95
2023-02-09T11:43:43.564Z,4.19
2023-02-09T11:46:49.575Z,4.32
2023-02-09T11:49:54.200Z,4.54
2023-02-09T11:53:00.818Z,4.96
2023-02-09T11:56:11.629Z,5.26
2023-02-09T11:59:27.348Z,5.40
2023-02-09T12:03:11.052Z,5.94
2023-02-09T12:06:17.263Z,6.83
2023-02-09T12:09:25.459Z,7.65
2023-02-09T12:12:35.750Z,8.21
2023-02-09T12:15:44.939Z,8.83
2023-02-09T12:18:47.921Z,9.66
2023-02-09T12:21:50.652Z,10.47
2023-02-09T12:25:11.748Z,11.63
2023-02-09T12:28:37.826Z,12.20
2023-02-09T12:32:03.385Z,13.23
2023-02-09T12:35:27.423Z,14.07
2023-02-09T12:38:56.416Z,14.27
2023-02-09T12:42:25.572Z,14.35
2023-02-09T12:45:34.697Z,14.11
2023-02-09T12:49:01.949Z,15.48
2023-02-09T12:52:14.934Z,16.05
2023-02-09T12:55:23.381Z,17.33
2023-02-09T12:58:44.686Z,17.88
2023-02-09T13:02:06.975Z,17.93
2023-02-09T13:05:22.090Z,18.74
2023-02-09T13:08:32.092Z,17.59
2023-02-09T13:11:44.826Z,14.77
2023-02-09T13:14:50.324Z,11.61
2023-02-09T13:18:30.839Z,9.13
2023-02-09T13:22:01.588Z,6.94
2023-02-09T13:25:36.318Z,5.56
2023-02-09T13:28:39.024Z,5.10
2023-02-09T13:31:48.070Z,4.72
2023-02-09T13:34:59.759Z,4.32
2023-02-09T13:38:18.847Z,4.06
2023-02-09T13:41:30.994Z,3.92
2023-02-09T13:44:34.045Z,3.68
2023-02-09T13:47:43.071Z,3.55
2023-02-09T13:50:54.046Z,3.40
2023-02-09T13:54:01.922Z,3.00
2023-02-09T13:57:09.869Z,2.86
2023-02-09T14:00:38.099Z,2.82
2023-02-09T14:04:03.300Z,2.79
2023-02-09T14:07:10.786Z,2.69
2023-02-09T14:10:17.067Z,2.65
2023-02-09T14:13:26.947Z,2.59
2023-02-09T14:16:31.945Z,2.65
2023-02-09T14:19:35.553Z,2.60
2023-02-09T14:22:39.670Z,2.46
2023-02-09T14:25:43.432Z,2.44
2023-02-09T14:29:04.994Z,2.44
2023-02-09T14:32:32.999Z,2.36
2023-02-09T14:35:41.364Z,2.22
2023-02-09T14:38:47.060Z,2.15
2023-02-09T14:42:14.058Z,2.07
2023-02-09T14:45:16.632Z,1.91
2023-02-09T14:48:31.143Z,1.86
2023-02-09T14:51:33.964Z,2.00
2023-02-09T14:54:48.756Z,1.87
2023-02-09T14:57:51.436Z,1.85
2023-02-09T15:00:57.149Z,1.76
2023-02-09T15:03:59.665Z,1.67
2023-02-09T15:07:03.461Z,1.59
2023-02-09T15:10:18.422Z,1.61
2023-02-09T15:13:21.599Z,1.58
2023-02-09T15:16:24.385Z,1.57
2023-02-09T15:19:28.226Z,1.42
2023-02-09T15:22:31.420Z,1.38
2023-02-09T15:25:34.337Z,1.31
2023-02-09T15:28:39.216Z,1.22
2023-02-09T15:31:42.834Z,1.15
2023-02-09T15:34:46.222Z,1.03
2023-02-09T15:37:54.162Z,0.95
2023-02-09T15:41:15.268Z,0.84
2023-02-09T15:44:39.574Z,0.81
2023-02-09T15:47:50.347Z,0.67
2023-02-09T15:50:53.886Z,0.55
2023-02-09T15:54:12.111Z,0.57
2023-02-09T15:57:15.447Z,0.47
2023-02-09T16:00:24.878Z,0.43
2023-02-09T16:03:28.123Z,0.39
2023-02-09T16:06:31.369Z,0.40
2023-02-09T16:09:35.711Z,0.35
2023-02-09T16:12:38.304Z,0.24
2023-02-09T16:15:41.440Z,0.17
2023-02-09T16:18:44.530Z,0.10
2023-02-09T16:21:54.034Z,0.01
2023-02-09T16:24:56.825Z,-0.03
2023-02-09T16:27:59.774Z,-0.21
2023-02-09T16:31:02.934Z,-0.30
2023-02-09T16:34:05.871Z,-0.26
2023-02-09T16:37:08.515Z,-0.34
2023-02-09T16:40:30.455Z,-0.46
2023-02-09T16:43:33.888Z,-0.54
2023-02-09T16:46:37.022Z,-0.47
2023-02-09T16:49:42.030Z,-0.60
2023-02-09T16:52:45.349Z,-0.76
2023-02-09T16:55:49.626Z,-0.89
2023-02-09T16:58:53.644Z,-1.02
2023-02-09T17:01:59.797Z,-1.01
2023-02-09T17:05:15.152Z,-1.03
2023-02-09T17:08:18.291Z,-1.09
2023-02-09T17:11:25.131Z,-1.18
